Les données CO2, particules etc. à Grandhan, (Durbuy) ces mois de mars et avril 2023

Partageons !

Voici les relevés CO2 des mois de mars et avril 2023.
Rien de neuf, très haut, trop haut pour la saison.
Que dire de plus .

Address 1
Serial Number 12631
Test Name Co2 Grandhan
Setting Time 03-05-2023 17:39:44
Total Records 12700
Record Interval 2 hour
Immediately/Manual Immediately
Temperature Alarm L:-5 H:50 ℃
Humidity Alarm L:10 H:100 %RH
CO2 Alarm 2000 ppm
Start Time 03-05-2023 17:39:44
Test Records 684
Is TEMP Alarm
Is HUMI Alarm Low(RH) High(RH)
Is CO2 Alarm
Record Time Temp(℃) Humi(%RH) DP(℃) CO2(PPM)
1 03-05-23 17:39:44 15.5 65.9 29.1 410
2 03-05-23 19:39:44 5.3 74.8 17.7 405
3 03-05-23 21:39:44 4.4 79.5 17.9 412
4 03-05-23 23:39:44 4.0 80.4 17.0 415
5 03-06-23 01:39:44 3.5 81.6 15.6 414
6 03-06-23 03:39:44 3.1 83.2 14.7 412
7 03-06-23 05:39:44 2.9 83.0 13.6 414
8 03-06-23 07:39:44 2.2 84.3 10.2 413
9 03-06-23 09:39:44 2.8 84.9 14.2 412
10 03-06-23 11:39:44 5.3 75.0 17.9 401
11 03-06-23 13:39:44 9.3 58.1 14.9 403
12 03-06-23 15:39:44 7.0 64.5 15.1 401
13 03-06-23 17:39:44 6.2 64.6 13.3 401
14 03-06-23 19:39:44 4.7 70.6 13.1 403
15 03-06-23 21:39:44 4.2 76.0 14.9 400
16 03-06-23 23:39:44 3.4 86.4 18.2 402
17 03-07-23 01:39:44 3.6 89.3 20.9 398
18 03-07-23 03:39:44 3.9 88.7 21.8 399
19 03-07-23 05:39:44 3.8 86.5 20.0 399
20 03-07-23 07:39:44 3.7 84.8 18.5 400
21 03-07-23 09:39:44 3.3 90.1 20.0 398
22 03-07-23 11:39:44 4.4 88.0 23.4 396
23 03-07-23 13:39:44 7.4 82.4 28.4 397
24 03-07-23 15:39:44 6.4 81.3 25.2 398
25 03-07-23 17:39:44 5.6 82.9 24.0 402
26 03-07-23 19:39:44 4.3 85.8 21.6 401
27 03-07-23 21:39:44 3.7 85.6 19.0 408
28 03-07-23 23:39:44 3.0 85.8 15.8 408
29 03-08-23 01:39:44 2.3 86.7 12.3 415
30 03-08-23 03:39:44 2.0 87.4 10.6 415
31 03-08-23 05:39:44 2.0 87.9 10.9 420
32 03-08-23 07:39:44 2.0 86.7 10.2 402
33 03-08-23 09:39:44 2.2 87.8 12.2 397
34 03-08-23 11:39:44 3.7 88.3 20.7 394
35 03-08-23 13:39:44 4.9 89.8 26.3 396
36 03-08-23 15:39:44 6.5 90.0 31.4 401
37 03-08-23 17:39:44 8.9 89.9 36.9 402
38 03-08-23 19:39:44 8.4 88.0 34.5 423
39 03-08-23 21:39:44 7.8 88.6 33.6 421
40 03-08-23 23:39:44 8.0 89.0 34.4 426
41 03-09-23 01:39:44 9.0 92.4 38.9 404
42 03-09-23 03:39:44 9.7 91.3 39.5 402
43 03-09-23 05:39:44 9.2 90.8 38.2 403
44 03-09-23 07:39:44 9.0 92.3 38.8 406
45 03-09-23 09:39:44 9.5 91.6 39.3 404
46 03-09-23 11:39:44 10.4 92.3 41.5 406
47 03-09-23 13:39:44 11.6 89.5 41.6 403
48 03-09-23 15:39:44 12.4 79.4 35.4 404
49 03-09-23 17:39:44 12.4 78.4 34.7 405
50 03-09-23 19:39:44 11.4 84.9 37.9 406
51 03-09-23 21:39:44 11.4 84.7 37.8 406
52 03-09-23 23:39:44 11.3 87.6 39.7 406
53 03-10-23 01:39:44 10.6 90.2 40.4 403
54 03-10-23 03:39:44 10.6 92.1 41.8 406
55 03-10-23 05:39:44 10.2 89.9 39.5 406
56 03-10-23 07:39:44 9.5 90.3 38.4 406
57 03-10-23 09:39:44 9.3 89.6 37.5 406
58 03-10-23 11:39:44 9.5 88.5 37.1 402
59 03-10-23 13:39:44 9.5 90.6 38.6 404
60 03-10-23 15:39:44 9.3 91.4 38.8 406
61 03-10-23 17:39:44 6.5 89.1 30.7 411
62 03-10-23 19:39:44 3.9 86.1 20.2 410
63 03-10-23 21:39:44 2.7 86.5 14.6 413
64 03-10-23 23:39:44 1.7 85.7 7.2 408
65 03-11-23 01:39:44 1.1 85.9 1.1 406
66 03-11-23 03:39:44 0.6 86.7 -6.6 409
67 03-11-23 05:39:44 0.7 87.2 -4.3 413
68 03-11-23 07:39:44 0.3 88.4 -14.5 419
69 03-11-23 09:39:44 0.0 88.5 -1.$ 420
70 03-11-23 11:39:44 3.1 85.2 16.0 418
71 03-11-23 13:39:44 7.0 70.1 19.0 411
72 03-11-23 15:39:44 9.3 63.0 18.5 411
73 03-11-23 17:39:44 10.5 57.0 16.0 411
74 03-11-23 19:39:44 8.9 54.3 11.5 410
75 03-11-23 21:39:44 5.9 65.5 13.1 429
76 03-11-23 23:39:44 2.9 71.6 6.5 434
77 03-12-23 01:39:44 1.8 77.2 3.1 433
78 03-12-23 03:39:44 2.6 75.1 7.1 418
79 03-12-23 05:39:44 2.6 79.0 9.5 413
80 03-12-23 07:39:44 3.3 81.9 14.9 411
81 03-12-23 09:39:44 4.0 84.4 19.5 415
82 03-12-23 11:39:44 5.6 89.8 28.6 414
83 03-12-23 13:39:44 9.6 91.0 39.1 409
84 03-12-23 15:39:44 11.5 83.9 37.3 410
85 03-12-23 17:39:44 12.0 75.1 31.6 407
86 03-12-23 19:39:44 11.8 69.6 27.3 406
87 03-12-23 21:39:44 11.1 72.3 28.2 410
88 03-12-23 23:39:44 10.8 75.5 30.1 412
89 03-13-23 01:39:44 10.4 78.9 31.9 411
90 03-13-23 03:39:44 10.6 85.7 37.2 407
91 03-13-23 05:39:44 10.9 89.9 40.7 410
92 03-13-23 07:39:44 12.0 90.0 42.6 409
93 03-13-23 09:39:44 12.9 85.0 40.3 409
94 03-13-23 11:39:44 13.3 83.5 39.7 409
95 03-13-23 13:39:44 13.5 88.9 44.1 408
96 03-13-23 15:39:44 14.0 84.7 41.6 408
97 03-13-23 17:39:44 14.7 84.2 42.2 408
98 03-13-23 19:39:44 15.1 73.5 34.5 407
99 03-13-23 21:39:44 13.2 78.8 36.1 406
100 03-13-23 23:39:44 11.7 80.1 34.9 408
101 03-14-23 01:39:44 11.2 81.6 35.2 406
102 03-14-23 03:39:44 11.0 82.8 35.7 406
103 03-14-23 05:39:44 10.3 84.2 35.5 407
104 03-14-23 07:39:44 9.3 90.4 38.1 404
105 03-14-23 09:39:44 9.3 92.2 39.4 405
106 03-14-23 11:39:44 9.9 91.9 40.3 400
107 03-14-23 13:39:44 6.9 88.9 31.7 402
108 03-14-23 15:39:44 7.7 84.1 30.3 400
109 03-14-23 17:39:44 6.9 84.6 28.7 402
110 03-14-23 19:39:44 4.4 84.4 21.1 404
111 03-14-23 21:39:44 3.8 87.5 20.6 408
112 03-14-23 23:39:44 2.5 86.1 13.2 414
113 03-15-23 01:39:44 1.4 89.0 6.2 414
114 03-15-23 03:39:44 0.9 89.4 0.2 419
115 03-15-23 05:39:44 1.2 91.5 5.4 412
116 03-15-23 07:39:44 2.0 92.7 13.6 410
117 03-15-23 09:39:44 2.5 92.0 16.7 412
118 03-15-23 11:39:44 4.1 93.4 25.6 411
119 03-15-23 13:39:44 8.9 82.8 31.9 407
120 03-15-23 15:39:44 10.4 73.4 27.9 410
121 03-15-23 17:39:44 11.4 70.6 27.4 411
122 03-15-23 19:39:44 10.4 60.1 18.1 410
123 03-15-23 21:39:44 7.6 70.2 20.4 417
124 03-15-23 23:39:44 6.1 75.5 20.5 421
125 03-16-23 01:39:44 4.7 77.7 17.8 417
126 03-16-23 03:39:44 3.8 80.1 16.0 418
127 03-16-23 05:39:44 4.6 80.0 18.9 415
128 03-16-23 07:39:44 4.8 79.3 19.1 411
129 03-16-23 09:39:44 5.0 78.6 19.3 412
130 03-16-23 11:39:44 6.9 75.3 22.3 410
131 03-16-23 13:39:44 11.7 61.9 21.4 407
132 03-16-23 15:39:44 15.4 50.6 17.2 405
133 03-16-23 17:39:44 16.8 45.2 14.3 409
134 03-16-23 19:39:44 14.4 49.7 15.4 408
135 03-16-23 21:39:44 11.9 53.5 15.3 409
136 03-16-23 23:39:44 10.8 57.4 16.7 408
137 03-17-23 01:39:44 10.1 58.5 16.5 410
138 03-17-23 03:39:44 9.5 59.7 16.4 410
139 03-17-23 05:39:44 8.4 63.3 17.1 412
140 03-17-23 07:39:44 7.7 65.0 16.9 416
141 03-17-23 09:39:44 7.4 67.0 17.7 415
142 03-17-23 11:39:44 9.5 67.3 21.9 411
143 03-17-23 13:39:44 16.1 55.3 21.5 410
144 03-17-23 15:39:44 19.5 47.5 18.4 408
145 03-17-23 17:39:44 18.7 46.2 16.7 411
146 03-17-23 19:39:44 16.0 51.8 18.7 410
147 03-17-23 21:39:44 14.5 58.0 21.9 411
148 03-17-23 23:39:44 13.9 62.1 24.4 420
149 03-18-23 01:39:44 12.0 68.7 26.9 493
150 03-18-23 03:39:44 12.3 73.8 31.1 431
151 03-18-23 05:39:44 11.6 76.5 32.1 415
152 03-18-23 07:39:44 10.5 77.5 31.0 437
153 03-18-23 09:39:44 10.9 79.7 33.3 411
154 03-18-23 11:39:44 13.7 74.9 33.8 409
155 03-18-23 13:39:44 15.1 68.4 30.6 409
156 03-18-23 15:39:44 14.9 67.7 29.8 410
157 03-18-23 17:39:44 20.5 49.0 20.5 411
158 03-18-23 19:39:44 18.3 50.7 20.0 409
159 03-18-23 21:39:44 15.5 57.6 22.7 414
160 03-18-23 23:39:44 13.3 66.1 26.7 418
161 03-19-23 01:39:44 13.3 66.1 26.7 418
162 03-19-23 03:39:44 12.0 72.0 29.3 429
163 03-19-23 05:39:44 10.7 76.0 30.3 464
164 03-19-23 07:39:44 10.5 77.8 31.3 428
165 03-19-23 09:39:44 11.0 80.7 34.2 419
166 03-19-23 11:39:44 11.1 82.4 35.6 411
167 03-19-23 13:39:44 11.3 84.2 37.2 413
168 03-19-23 15:39:44 13.6 80.3 37.8 414
169 03-19-23 17:39:44 12.3 84.0 38.7 405
170 03-19-23 19:39:44 17.5 63.7 29.5 408
171 03-19-23 21:39:44 14.8 67.2 29.3 406
172 03-19-23 23:39:44 12.9 75.3 33.1 428
173 03-20-23 01:39:44 11.1 77.6 32.1 419
174 03-20-23 03:39:44 10.0 77.5 30.2 422
175 03-20-23 05:39:44 9.5 77.8 29.5 420
176 03-20-23 07:39:44 8.0 77.0 26.0 428
177 03-20-23 09:39:44 5.6 81.3 23.0 428
178 03-20-23 11:39:44 5.7 83.9 25.0 436
179 03-20-23 13:39:44 6.5 85.0 28.0 417
180 03-20-23 15:39:44 8.3 76.8 26.5 407
181 03-20-23 17:39:44 9.9 72.2 26.2 404
182 03-20-23 19:39:44 11.0 67.2 24.3 404
183 03-20-23 21:39:44 12.5 62.8 23.1 403
184 03-20-23 23:39:44 11.3 65.6 23.6 400
185 03-21-23 01:39:44 10.6 69.9 25.7 409
186 03-21-23 03:39:44 10.0 73.6 27.4 423
187 03-21-23 05:39:44 10.0 74.9 28.3 431
188 03-21-23 07:39:44 9.6 79.8 31.1 527
189 03-21-23 09:39:44 9.8 79.6 31.3 424
190 03-21-23 11:39:44 9.5 84.2 34.1 499
191 03-21-23 13:39:44 10.1 82.5 34.0 411
192 03-21-23 15:39:44 11.3 75.8 31.1 398
193 03-21-23 17:39:44 12.9 68.1 27.7 395
194 03-21-23 19:39:44 16.4 56.2 22.6 394
195 03-21-23 21:39:44 16.8 54.1 21.3 395
196 03-21-23 23:39:44 14.1 65.5 27.2 401
197 03-22-23 01:39:44 12.4 71.2 29.3 400
198 03-22-23 03:39:44 11.0 77.2 31.6 407
199 03-22-23 05:39:44 11.5 77.8 32.9 403
200 03-22-23 07:39:44 10.4 80.6 33.1 404
201 03-22-23 09:39:44 10.2 83.3 34.7 400
202 03-22-23 11:39:44 10.3 82.0 34.0 399
203 03-22-23 13:39:44 10.6 78.5 31.9 397
204 03-22-23 15:39:44 12.0 72.1 29.4 396
205 03-22-23 17:39:44 13.0 68.6 28.2 396
206 03-22-23 19:39:44 13.4 69.9 29.7 392
207 03-22-23 21:39:44 13.3 71.2 30.5 395
208 03-22-23 23:39:44 13.0 74.2 32.4 394
209 03-23-23 01:39:44 12.9 75.9 33.5 394
210 03-23-23 03:39:44 12.5 78.8 35.1 395
211 03-23-23 05:39:44 12.0 82.6 37.2 397
212 03-23-23 07:39:44 11.4 86.6 39.2 396
213 03-23-23 09:39:44 11.6 83.7 37.4 397
214 03-23-23 11:39:44 11.4 81.4 35.4 398
215 03-23-23 13:39:44 12.1 80.3 35.6 398
216 03-23-23 15:39:44 12.4 85.0 39.5 398
217 03-23-23 17:39:44 13.1 79.3 36.3 394
218 03-23-23 19:39:44 15.2 70.6 32.4 393
219 03-23-23 21:39:44 15.2 66.7 29.4 393
220 03-23-23 23:39:44 14.2 72.0 32.3 394
221 03-24-23 01:39:44 13.5 73.7 32.7 393
222 03-24-23 03:39:44 12.0 86.1 39.7 397
223 03-24-23 05:39:44 12.2 87.8 41.3 399
224 03-24-23 07:39:44 12.6 88.3 42.3 399
225 03-24-23 09:39:44 12.8 85.5 40.5 399
226 03-24-23 11:39:44 10.5 80.1 32.9 399
227 03-24-23 13:39:44 11.9 77.0 32.9 394
228 03-24-23 15:39:44 15.3 63.4 27.0 396
229 03-24-23 17:39:44 15.3 58.6 23.3 398
230 03-24-23 19:39:44 16.6 55.1 21.9 397
231 03-24-23 21:39:44 14.5 60.5 23.9 396
232 03-24-23 23:39:44 11.8 68.7 26.6 398
233 03-25-23 01:39:44 9.9 76.6 29.4 399
234 03-25-23 03:39:44 8.7 80.6 30.0 398
235 03-25-23 05:39:44 8.6 83.8 32.0 399
236 03-25-23 07:39:44 8.6 81.7 30.5 399
237 03-25-23 09:39:44 8.2 80.5 28.9 397
238 03-25-23 11:39:44 8.1 85.2 31.9 398
239 03-25-23 13:39:44 8.2 87.0 33.4 398
240 03-25-23 15:39:44 10.6 76.8 30.7 394
241 03-25-23 17:39:44 12.7 68.5 27.7 394
242 03-25-23 19:39:44 14.1 56.8 20.5 395
243 03-25-23 21:39:44 13.5 54.2 17.9 397
244 03-25-23 23:39:44 11.3 66.9 24.5 400
245 03-26-23 01:39:44 10.0 67.3 22.8 402
246 03-26-23 04:39:44 9.3 79.2 30.1 401
247 03-26-23 06:39:44 8.7 80.1 29.6 404
248 03-26-23 08:39:44 8.2 80.1 28.6 436
249 03-26-23 10:39:44 7.9 84.3 30.9 454
250 03-26-23 12:39:44 8.1 84.2 31.2 398
251 03-26-23 14:39:44 7.4 85.4 30.5 391
252 03-26-23 16:39:44 7.1 91.5 33.9 391
253 03-26-23 18:39:44 9.0 89.0 36.5 390
254 03-26-23 20:39:44 8.3 89.2 35.2 388
255 03-26-23 22:39:44 8.6 89.5 36.0 400
256 03-27-23 00:39:44 8.0 88.3 33.9 401
257 03-27-23 02:39:44 7.2 88.3 32.0 395
258 03-27-23 04:39:44 5.8 84.3 25.6 399
259 03-27-23 06:39:44 4.4 79.8 18.1 401
260 03-27-23 08:39:44 2.8 81.3 12.0 402
261 03-27-23 10:39:44 3.1 84.5 15.5 422
262 03-27-23 12:39:44 3.7 85.5 19.0 422
263 03-27-23 14:39:44 5.4 83.8 24.0 411
264 03-27-23 16:39:44 8.9 70.7 23.3 409
265 03-27-23 18:39:44 7.9 71.4 21.8 408
266 03-27-23 20:39:44 11.2 61.7 20.5 407
267 03-27-23 22:39:44 8.6 65.6 19.1 410
268 03-28-23 00:39:44 6.0 71.7 17.6 420
269 03-28-23 02:39:44 4.1 71.6 11.7 418
270 03-28-23 04:39:44 2.2 76.4 5.5 423
271 03-28-23 06:39:44 0.2 79.6 -23.3 456
272 03-28-23 08:39:44 0.0 80.9 -1.$ 459
273 03-28-23 10:39:44 0.0 81.0 -1.$ 475
274 03-28-23 12:39:44 0.0 82.9 -1.$ 495
275 03-28-23 14:39:44 3.5 81.1 15.3 434
276 03-28-23 16:39:44 8.7 64.1 18.2 406
277 03-28-23 18:39:44 10.8 51.8 12.6 407
278 03-28-23 20:39:44 12.0 46.6 10.2 405
279 03-28-23 22:39:44 9.4 51.8 10.5 407
280 03-29-23 00:39:44 7.9 60.0 13.8 405
281 03-29-23 02:39:44 6.7 71.7 19.4 405
282 03-29-23 04:39:44 6.7 73.4 20.6 404
283 03-29-23 06:39:44 6.8 75.4 22.2 413
284 03-29-23 08:39:44 6.8 75.6 22.3 425
285 03-29-23 10:39:44 7.1 77.3 24.2 432
286 03-29-23 12:39:44 7.5 79.3 26.5 456
287 03-29-23 14:39:44 10.1 74.8 28.4 404
288 03-29-23 16:39:44 13.3 68.9 28.8 400
289 03-29-23 18:39:44 17.5 63.0 29.0 403
290 03-29-23 20:39:44 17.3 68.6 33.2 404
291 03-29-23 22:39:44 16.6 70.9 34.2 399
292 03-30-23 00:39:44 16.0 66.4 30.1 400
293 03-30-23 02:39:44 14.7 64.5 27.2 408
294 03-30-23 04:39:44 14.1 67.3 28.6 407
295 03-30-23 06:39:44 13.5 70.4 30.2 452
296 03-30-23 08:39:44 14.9 67.5 29.7 404
297 03-30-23 10:39:44 13.8 70.4 30.6 406
298 03-30-23 12:39:44 13.4 73.1 32.1 405
299 03-30-23 14:39:44 14.5 71.6 32.4 403
300 03-30-23 16:39:44 14.1 73.2 33.1 410
301 03-30-23 18:39:44 14.7 78.2 37.6 402
302 03-30-23 20:39:44 16.7 66.0 30.5 402
303 03-30-23 22:39:44 15.7 69.0 31.8 403
304 03-31-23 00:39:44 13.6 74.0 33.0 408
305 03-31-23 02:39:44 12.5 77.1 33.8 406
306 03-31-23 04:39:44 11.9 80.2 35.3 406
307 03-31-23 06:39:44 11.8 84.7 38.4 404
308 03-31-23 08:39:44 10.8 85.6 37.4 404
309 03-31-23 10:39:44 10.6 82.0 34.5 398
310 03-31-23 12:39:44 10.8 83.3 35.8 399
311 03-31-23 14:39:44 11.7 83.8 37.6 400
312 03-31-23 16:39:44 12.7 80.6 36.7 394
313 03-31-23 18:39:44 13.8 72.8 32.4 395
314 03-31-23 20:39:44 13.4 72.6 31.7 393
315 03-31-23 22:39:44 12.0 76.8 32.9 394
316 04-01-23 00:39:44 11.0 81.5 34.8 395
317 04-01-23 02:39:44 10.0 85.5 35.9 398
318 04-01-23 04:39:44 9.3 89.6 37.5 398
319 04-01-23 06:39:44 9.0 91.0 37.9 397
320 04-01-23 08:39:44 8.8 91.7 38.0 397
321 04-01-23 10:39:44 8.8 92.7 38.7 399
322 04-01-23 12:39:44 9.1 91.8 38.7 401
323 04-01-23 14:39:44 9.9 90.5 39.3 397
324 04-01-23 16:39:44 10.5 88.0 38.6 403
325 04-01-23 18:39:44 11.2 87.4 39.4 405
326 04-01-23 20:39:44 11.4 85.9 38.6 404
327 04-01-23 22:39:44 10.6 86.6 37.8 405
328 04-02-23 00:39:44 9.7 85.1 35.1 406
329 04-02-23 02:39:44 8.9 89.5 36.7 410
330 04-02-23 04:39:44 8.9 90.2 37.1 413
331 04-02-23 06:39:44 9.3 90.9 38.4 419
332 04-02-23 08:39:44 8.7 89.8 36.4 412
333 04-02-23 10:39:44 7.6 89.7 33.9 415
334 04-02-23 12:39:44 6.9 90.0 32.4 416
335 04-02-23 14:39:44 6.6 90.0 31.6 416
336 04-02-23 16:39:44 6.0 89.7 29.7 416
337 04-02-23 18:39:44 6.1 89.0 29.6 415
338 04-02-23 20:39:44 6.6 87.4 29.9 415
339 04-02-23 22:39:44 6.5 86.9 29.3 421
340 04-03-23 00:39:44 6.0 85.8 27.1 421
341 04-03-23 02:39:44 5.5 85.2 25.3 426
342 04-03-23 04:39:44 4.5 84.8 21.7 444
343 04-03-23 06:39:44 4.4 84.3 21.0 421
344 04-03-23 08:39:44 2.6 82.5 11.6 434
345 04-03-23 10:39:44 1.1 85.6 0.9 432
346 04-03-23 12:39:44 2.2 87.4 12.0 433
347 04-03-23 14:39:44 8.0 78.0 26.7 423
348 04-03-23 16:39:44 12.1 63.5 23.1 418
349 04-03-23 18:39:44 15.1 56.6 21.5 420
350 04-03-23 20:39:44 16.0 47.4 15.2 420
351 04-03-23 22:39:44 13.0 47.8 12.4 419
352 04-04-23 00:39:44 8.3 50.9 8.0 422
353 04-04-23 02:39:44 5.3 60.1 7.8 454
354 04-04-23 04:39:44 3.1 67.7 5.0 435
355 04-04-23 06:39:44 1.3 71.9 -4.4 443
356 04-04-23 08:39:44 0.0 72.4 -1.$ 445
357 04-04-23 10:39:44 0.0 74.1 -1.$ 456
358 04-04-23 12:39:44 0.5 77.7 -13.5 441
359 04-04-23 14:39:44 6.4 61.2 11.4 418
360 04-04-23 16:39:44 11.2 50.3 12.0 414
361 04-04-23 18:39:44 14.2 45.2 11.7 416
362 04-04-23 20:39:44 15.1 40.7 9.1 420
363 04-04-23 22:39:44 13.6 41.2 7.9 421
364 04-05-23 00:39:44 9.3 48.8 8.1 426
365 04-05-23 02:39:44 7.4 53.6 8.2 431
366 04-05-23 04:39:44 4.9 60.4 6.9 450
367 04-05-23 06:39:44 2.0 67.6 -1.1 477
368 04-05-23 08:39:44 0.0 71.9 -1.$ 474
369 04-05-23 10:39:44 0.0 73.9 -1.$ 491
370 04-05-23 12:39:44 0.0 79.3 -1.$ 488
371 04-05-23 14:39:44 6.3 65.9 14.4 444
372 04-05-23 16:39:44 14.1 44.7 11.2 417
373 04-05-23 18:39:44 17.3 35.1 6.7 419
374 04-05-23 20:39:44 18.8 34.0 7.0 420
375 04-05-23 22:39:44 16.6 33.6 4.9 420
376 04-06-23 00:39:44 11.8 44.2 8.2 425
377 04-06-23 02:39:44 7.0 53.9 7.6 448
378 04-06-23 04:39:44 3.4 65.2 4.8 492
379 04-06-23 06:39:44 1.4 70.9 -4.0 494
380 04-06-23 08:39:44 0.2 74.5 -25.6 486
381 04-06-23 10:39:44 0.6 76.0 -12.1 500
382 04-06-23 12:39:44 1.2 79.2 -1.4 484
383 04-06-23 14:39:44 4.7 74.0 15.3 442
384 04-06-23 16:39:44 8.4 69.7 21.6 415
385 04-06-23 18:39:44 8.7 79.0 28.8 405
386 04-06-23 20:39:44 8.4 82.9 31.0 405
387 04-06-23 22:39:44 8.6 85.2 33.0 405
388 04-07-23 00:39:44 9.6 81.8 32.6 408
389 04-07-23 02:39:44 9.4 85.6 34.9 416
390 04-07-23 04:39:44 9.2 87.5 35.8 415
391 04-07-23 06:39:44 9.3 86.8 35.5 418
392 04-07-23 08:39:44 9.0 85.7 34.2 449
393 04-07-23 10:39:44 8.6 86.3 33.8 467
394 04-07-23 12:39:44 8.9 85.8 34.0 423
395 04-07-23 14:39:44 9.4 84.7 34.2 416
396 04-07-23 16:39:44 10.9 82.8 35.6 407
397 04-07-23 18:39:44 11.9 76.7 32.7 417
398 04-07-23 20:39:44 13.1 72.4 31.2 414
399 04-07-23 22:39:44 12.0 74.2 31.0 414
400 04-08-23 00:39:44 11.2 74.4 29.9 421
401 04-08-23 02:39:44 10.1 76.3 29.5 420
402 04-08-23 04:39:44 9.3 77.9 29.2 426
403 04-08-23 06:39:44 7.8 78.3 26.5 435
404 04-08-23 08:39:44 5.0 80.1 20.3 474
405 04-08-23 10:39:44 4.4 84.3 21.0 468
406 04-08-23 12:39:44 5.3 84.5 24.2 465
407 04-08-23 14:39:44 7.7 86.5 32.0 447
408 04-08-23 16:39:44 10.9 79.8 33.4 427
409 04-08-23 18:39:44 13.4 76.3 34.5 419
410 04-08-23 20:39:44 17.5 57.1 24.3 424
411 04-08-23 22:39:44 17.0 57.1 23.9 420
412 04-09-23 00:39:44 13.8 62.1 24.3 425
413 04-09-23 02:39:44 10.3 67.0 23.1 448
414 04-09-23 04:39:44 7.5 72.1 21.5 473
415 04-09-23 06:39:44 4.9 76.4 17.6 498
416 04-09-23 08:39:44 3.3 78.8 13.0 487
417 04-09-23 10:39:44 2.0 79.4 5.9 512
418 04-09-23 12:39:44 2.5 83.5 11.6 493
419 04-09-23 14:39:44 11.8 74.0 30.5 448
420 04-09-23 16:39:44 18.0 49.0 18.4 416
421 04-09-23 18:39:44 20.0 45.6 17.3 417
422 04-09-23 20:39:44 22.7 34.4 10.1 421
423 04-09-23 22:39:44 20.7 38.4 12.0 422
424 04-10-23 00:39:44 16.1 45.5 13.8 423
425 04-10-23 02:39:44 11.7 56.2 17.1 459
426 04-10-23 04:39:44 9.1 63.2 18.3 436
427 04-10-23 06:39:44 8.1 67.5 19.5 461
428 04-10-23 08:39:44 6.3 69.7 17.0 482
429 04-10-23 10:39:44 5.8 71.5 16.9 443
430 04-10-23 12:39:44 7.3 69.7 19.4 427
431 04-10-23 14:39:44 11.5 62.2 21.3 419
432 04-10-23 16:39:44 15.5 51.1 17.6 411
433 04-10-23 18:39:44 17.1 45.4 14.7 410
434 04-10-23 20:39:44 16.5 49.3 17.2 405
435 04-10-23 22:39:44 16.1 50.3 17.6 405
436 04-11-23 00:39:44 14.5 61.2 24.4 405
437 04-11-23 02:39:44 11.9 81.0 35.8 411
438 04-11-23 04:39:44 10.7 82.4 34.9 415
439 04-11-23 06:39:44 10.3 83.3 34.9 413
440 04-11-23 08:39:44 8.6 80.8 29.9 411
441 04-11-23 10:39:44 8.4 80.3 29.2 412
442 04-11-23 12:39:44 8.4 81.0 29.6 408
443 04-11-23 14:39:44 10.9 73.1 28.5 407
444 04-11-23 16:39:44 14.3 55.9 20.1 406
445 04-11-23 18:39:44 14.4 49.0 14.9 406
446 04-11-23 20:39:44 16.6 44.9 13.8 408
447 04-11-23 22:39:44 14.5 49.9 15.7 408
448 04-12-23 00:39:44 12.1 61.4 21.6 410
449 04-12-23 02:39:44 11.2 64.0 22.2 410
450 04-12-23 04:39:44 9.6 77.7 29.6 404
451 04-12-23 06:39:44 9.0 81.0 30.8 404
452 04-12-23 08:39:44 8.7 81.8 30.8 402
453 04-12-23 10:39:44 8.8 85.5 33.6 402
454 04-12-23 12:39:44 9.3 85.5 34.6 406
455 04-12-23 14:39:44 10.4 88.5 38.8 406
456 04-12-23 16:39:44 11.6 83.1 36.9 398
457 04-12-23 18:39:44 13.5 68.9 29.0 396
458 04-12-23 20:39:44 16.3 56.1 22.4 399
459 04-12-23 22:39:44 13.5 56.9 19.9 399
460 04-13-23 00:39:44 10.9 54.5 14.7 403
461 04-13-23 02:39:44 6.5 75.8 21.7 405
462 04-13-23 04:39:44 6.0 78.8 22.4 401
463 04-13-23 06:39:44 6.7 80.4 25.4 401
464 04-13-23 08:39:44 6.2 86.4 28.1 403
465 04-13-23 10:39:44 6.1 88.5 29.2 404
466 04-13-23 12:39:44 6.6 88.4 30.5 405
467 04-13-23 14:39:44 9.2 82.4 32.2 401
468 04-13-23 16:39:44 11.2 71.9 28.1 401
469 04-13-23 18:39:44 14.7 51.7 17.3 403
470 04-13-23 20:39:44 15.7 51.4 18.1 403
471 04-13-23 22:39:44 14.6 48.1 14.4 405
472 04-14-23 00:39:44 11.5 54.4 15.5 407
473 04-14-23 02:39:44 8.3 63.1 16.7 435
474 04-14-23 04:39:44 5.3 71.4 15.5 463
475 04-14-23 06:39:44 3.2 75.9 10.7 476
476 04-14-23 08:39:44 1.8 74.7 1.6 495
477 04-14-23 10:39:44 0.9 81.8 -3.8 497
478 04-14-23 12:39:44 3.7 81.7 16.6 474
479 04-14-23 14:39:44 12.6 66.3 25.9 411
480 04-14-23 16:39:44 15.4 51.8 18.1 402
481 04-14-23 18:39:44 15.2 48.6 15.4 404
482 04-14-23 20:39:44 15.3 44.6 12.4 404
483 04-14-23 22:39:44 14.8 43.3 10.8 405
484 04-15-23 00:39:44 13.2 52.2 16.0 413
485 04-15-23 02:39:44 10.1 59.2 17.0 457
486 04-15-23 04:39:44 8.1 70.0 21.3 476
487 04-15-23 06:39:44 7.8 74.0 23.5 518
488 04-15-23 08:39:44 7.6 75.8 24.3 489
489 04-15-23 10:39:44 7.5 76.7 24.7 463
490 04-15-23 12:39:44 7.8 76.1 24.9 460
491 04-15-23 14:39:44 14.3 63.1 25.6 406
492 04-15-23 16:39:44 20.4 44.5 16.7 414
493 04-15-23 18:39:44 20.5 35.7 9.6 417
494 04-15-23 20:39:44 21.8 36.5 11.2 416
495 04-15-23 22:39:44 17.9 39.5 10.7 418
496 04-16-23 00:39:44 14.1 50.3 15.5 419
497 04-16-23 02:39:44 14.1 50.5 15.7 419
498 04-16-23 04:39:44 11.3 61.1 20.2 422
499 04-16-23 06:39:44 10.2 66.9 22.8 420
500 04-16-23 08:39:44 9.4 72.7 25.7 422
501 04-16-23 10:39:44 8.5 76.9 27.0 424
502 04-16-23 12:39:44 8.0 80.8 28.7 425
503 04-16-23 14:39:44 8.2 82.3 30.1 426
504 04-16-23 16:39:44 8.9 82.8 31.9 426
505 04-16-23 18:39:44 9.8 82.6 33.5 423
506 04-16-23 20:39:44 10.5 83.8 35.6 431
507 04-16-23 22:39:44 10.8 82.9 35.5 424
508 04-17-23 00:39:44 11.8 80.5 35.3 423
509 04-17-23 02:39:44 11.3 80.1 34.2 429
510 04-17-23 04:39:44 10.7 81.1 34.0 429
511 04-17-23 06:39:44 10.3 81.7 33.7 430
512 04-17-23 08:39:44 10.1 81.7 33.4 429
513 04-17-23 10:39:44 9.9 82.5 33.6 426
514 04-17-23 12:39:44 9.7 84.7 34.8 428
515 04-17-23 14:39:44 9.6 83.8 34.0 426
516 04-17-23 16:39:44 10.0 84.7 35.4 430
517 04-17-23 18:39:44 10.8 84.6 36.7 430
518 04-17-23 20:39:44 11.3 81.4 35.2 428
519 04-17-23 22:39:44 14.3 73.9 33.9 422
520 04-18-23 00:39:44 15.0 65.7 28.4 420
521 04-18-23 02:39:44 14.0 62.8 25.0 424
522 04-18-23 04:39:44 11.8 65.1 23.9 438
523 04-18-23 06:39:44 10.1 67.0 22.7 452
524 04-18-23 08:39:44 7.5 71.6 21.1 507
525 04-18-23 10:39:44 5.3 76.1 18.6 503
526 04-18-23 12:39:44 3.7 76.3 13.1 515
527 04-18-23 14:39:44 4.6 82.5 20.5 518
528 04-18-23 16:39:44 13.7 67.2 28.0 427
529 04-18-23 18:39:44 17.7 50.4 19.2 416
530 04-18-23 20:39:44 20.3 48.4 19.8 418
531 04-18-23 22:39:44 19.0 52.7 22.2 420
532 04-19-23 00:39:44 16.5 55.4 22.0 420
533 04-19-23 02:39:44 15.0 61.4 25.1 425
534 04-19-23 04:39:44 12.2 65.6 24.8 430
535 04-19-23 06:39:44 10.2 68.6 24.1 440
536 04-19-23 08:39:44 9.6 72.1 25.6 436
537 04-19-23 10:39:44 8.6 72.8 24.2 443
538 04-19-23 12:39:44 7.0 74.7 22.2 456
539 04-19-23 14:39:44 9.3 74.4 26.7 461
540 04-19-23 16:39:44 16.2 62.0 26.9 419
541 04-19-23 18:39:44 17.1 62.2 28.0 416
542 04-19-23 20:39:44 18.3 58.7 26.4 417
543 04-19-23 22:39:44 21.5 40.8 14.5 417
544 04-20-23 00:39:44 18.2 39.0 10.5 420
545 04-20-23 02:39:44 13.7 41.8 8.5 424
546 04-20-23 04:39:44 10.3 46.7 8.1 427
547 04-20-23 06:39:44 8.3 52.2 8.9 427
548 04-20-23 08:39:44 6.2 57.9 8.6 429
549 04-20-23 10:39:44 5.0 60.2 7.1 438
550 04-20-23 12:39:44 4.1 62.9 6.0 435
551 04-20-23 14:39:44 5.6 68.5 14.4 426
552 04-20-23 16:39:44 8.2 69.3 21.0 420
553 04-20-23 18:39:44 8.6 72.2 23.8 421
554 04-20-23 20:39:44 12.1 65.4 24.6 420
555 04-20-23 22:39:44 11.7 62.8 22.1 409
556 04-21-23 00:39:44 11.7 55.4 16.5 411
557 04-21-23 02:39:44 11.1 60.9 19.8 413
558 04-21-23 04:39:44 8.9 68.2 21.5 414
559 04-21-23 06:39:44 8.1 70.9 21.9 421
560 04-21-23 08:39:44 7.0 76.7 23.5 428
561 04-21-23 10:39:44 6.5 75.3 21.4 434
562 04-21-23 12:39:44 5.1 76.8 18.5 440
563 04-21-23 14:39:44 8.0 78.7 27.2 417
564 04-21-23 16:39:44 15.3 61.3 25.4 410
565 04-21-23 18:39:44 19.0 41.9 13.5 409
566 04-21-23 20:39:44 22.2 33.6 9.1 410
567 04-21-23 22:39:44 17.1 42.9 12.7 409
568 04-22-23 00:39:44 16.7 54.8 21.8 406
569 04-22-23 02:39:44 15.0 53.2 18.8 415
570 04-22-23 04:39:44 11.3 71.0 27.6 489
571 04-22-23 06:39:44 8.8 75.0 26.2 500
572 04-22-23 08:39:44 7.9 78.2 26.6 519
573 04-22-23 10:39:44 7.3 79.0 25.8 500
574 04-22-23 12:39:44 6.7 78.4 24.0 553
575 04-22-23 14:39:44 9.5 83.3 33.4 464
576 04-22-23 16:39:44 16.3 66.2 30.3 410
577 04-22-23 18:39:44 16.8 61.3 27.0 408
578 04-22-23 20:39:44 16.0 74.5 36.3 405
579 04-22-23 22:39:44 15.2 79.3 39.1 400
580 04-23-23 00:39:44 14.8 82.2 40.8 405
581 04-23-23 02:39:44 13.9 82.8 40.1 407
582 04-23-23 04:39:44 12.2 80.8 36.1 422
583 04-23-23 06:39:44 10.3 83.0 34.7 462
584 04-23-23 08:39:44 8.7 84.2 32.5 531
585 04-23-23 10:39:44 8.1 85.0 31.8 501
586 04-23-23 12:39:44 8.1 85.4 32.1 509
587 04-23-23 14:39:44 8.5 87.8 34.6 518
588 04-23-23 16:39:44 15.3 71.4 33.2 403
589 04-23-23 18:39:44 14.7 68.1 29.9 399
590 04-23-23 20:39:44 15.3 67.3 30.0 398
591 04-23-23 22:39:44 14.6 75.6 35.5 394
592 04-24-23 00:39:44 14.2 73.4 33.3 400
593 04-24-23 02:39:44 12.1 75.4 32.0 402
594 04-24-23 04:39:44 11.4 76.5 31.8 403
595 04-24-23 06:39:44 10.9 80.1 33.6 404
596 04-24-23 08:39:44 8.9 75.6 26.8 403
597 04-24-23 10:39:44 8.6 79.6 29.1 403
598 04-24-23 12:39:44 8.2 82.5 30.3 403
599 04-24-23 14:39:44 8.2 87.9 34.0 403
600 04-24-23 16:39:44 9.0 84.5 33.3 402
601 04-24-23 18:39:44 11.0 74.4 29.6 400
602 04-24-23 20:39:44 12.4 72.0 29.9 399
603 04-24-23 22:39:44 13.5 66.7 27.4 404
604 04-25-23 00:39:44 12.0 73.9 30.7 401
605 04-25-23 02:39:44 9.8 83.0 33.8 405
606 04-25-23 04:39:44 8.7 85.8 33.6 408
607 04-25-23 06:39:44 8.6 86.3 33.8 413
608 04-25-23 08:39:44 8.3 86.7 33.4 443
609 04-25-23 10:39:44 8.0 85.6 32.0 425
610 04-25-23 12:39:44 7.5 83.6 29.5 412
611 04-25-23 14:39:44 6.9 84.9 28.9 409
612 04-25-23 16:39:44 7.6 84.8 30.5 403
613 04-25-23 18:39:44 10.5 73.1 27.8 400
614 04-25-23 20:39:44 10.3 72.2 26.9 403
615 04-25-23 22:39:44 13.8 61.9 24.1 406
616 04-26-23 00:39:44 12.3 57.5 18.9 406
617 04-26-23 02:39:44 11.3 59.5 19.0 409
618 04-26-23 04:39:44 7.8 63.4 16.0 419
619 04-26-23 06:39:44 4.9 71.4 14.3 445
620 04-26-23 08:39:44 2.5 76.6 7.4 464
621 04-26-23 10:39:44 1.0 80.1 -3.3 487
622 04-26-23 12:39:44 0.0 81.3 -1.$ 495
623 04-26-23 14:39:44 2.9 82.1 13.0 457
624 04-26-23 16:39:44 7.5 73.9 22.7 420
625 04-26-23 18:39:44 14.4 53.6 18.4 426
626 04-26-23 20:39:44 17.5 41.9 12.3 404
627 04-26-23 22:39:44 18.7 40.9 12.5 406
628 04-27-23 00:39:44 17.4 42.6 12.7 406
629 04-27-23 02:39:44 13.7 47.3 12.8 410
630 04-27-23 04:39:44 9.0 57.9 14.3 434
631 04-27-23 06:39:44 6.8 64.3 14.5 436
632 04-27-23 08:39:44 4.2 71.3 11.8 516
633 04-27-23 10:39:44 3.1 75.6 10.0 500
634 04-27-23 12:39:44 1.7 76.1 1.6 518
635 04-27-23 14:39:44 4.3 77.6 16.3 466
636 04-27-23 16:39:44 12.8 59.1 20.7 416
637 04-27-23 18:39:44 17.5 47.3 16.6 406
638 04-27-23 20:39:44 20.5 43.8 16.2 404
639 04-27-23 22:39:44 23.9 36.6 12.7 409
640 04-28-23 00:39:44 21.6 39.7 13.7 407
641 04-28-23 02:39:44 17.3 48.4 17.3 414
642 04-28-23 04:39:44 14.2 56.6 20.5 419
643 04-28-23 06:39:44 12.9 68.1 27.7 461
644 04-28-23 08:39:44 12.4 72.5 30.3 447
645 04-28-23 10:39:44 12.4 76.8 33.5 462
646 04-28-23 12:39:44 12.4 82.5 37.7 478
647 04-28-23 14:39:44 13.3 83.4 39.7 454
648 04-28-23 16:39:44 16.1 85.8 45.1 413
649 04-28-23 18:39:44 18.5 80.4 43.6 401
650 04-28-23 20:39:44 23.2 61.9 33.1 400
651 04-28-23 22:39:44 24.0 51.6 25.2 400
652 04-29-23 00:39:44 21.4 57.2 27.8 415
653 04-29-23 02:39:44 16.9 64.4 29.5 420
654 04-29-23 04:39:44 14.9 72.4 33.4 423
655 04-29-23 06:39:44 14.3 79.8 38.3 412
656 04-29-23 08:39:44 12.4 79.8 35.7 410
657 04-29-23 10:39:44 12.2 81.9 37.0 415
658 04-29-23 12:39:44 11.7 79.2 34.2 417
659 04-29-23 14:39:44 10.7 81.4 34.2 414
660 04-29-23 16:39:44 11.1 80.2 34.0 406
661 04-29-23 18:39:44 11.5 79.9 34.4 402
662 04-29-23 20:39:44 12.5 74.9 32.2 400
663 04-29-23 22:39:44 14.0 72.6 32.5 400
664 04-30-23 00:39:44 13.8 72.4 32.1 400
665 04-30-23 02:39:44 13.9 71.9 31.8 409
666 04-30-23 04:39:44 12.0 75.8 32.2 433
667 04-30-23 06:39:44 9.2 78.5 29.5 494
668 04-30-23 08:39:44 7.4 82.5 28.5 473
669 04-30-23 10:39:44 7.3 84.4 29.6 507
670 04-30-23 12:39:44 5.7 82.4 24.0 556
671 04-30-23 14:39:44 6.3 87.5 29.1 485
672 04-30-23 16:39:44 16.9 74.2 37.1 406
673 04-30-23 18:39:44 21.0 51.2 22.6 396
674 04-30-23 20:39:44 21.7 42.1 15.7 401
675 04-30-23 22:39:44 21.1 46.4 18.8 400
676 05-01-23 00:39:44 20.2 43.8 16.0 398
677 05-01-23 02:39:44 18.3 50.7 20.0 417
678 05-01-23 04:39:44 15.4 59.4 24.0 429
679 05-01-23 06:39:44 14.2 62.7 25.2 456
680 05-01-23 08:39:44 11.7 70.8 28.0 489
681 05-01-23 10:39:44 11.0 73.4 28.9 529
682 05-01-23 12:39:44 10.7 76.5 30.6 532
683 05-01-23 14:39:44 10.9 79.4 33.1 515
684 05-01-23 16:39:44 14.1 73.4 33.2 460

Les particules.

 

De toute manière, c’est toujours trop. Ces particules tuent tous les jours.

Partageons !
Author: Bernard Adam
Cuisinier à la retraite

Laisser un commentaire

Votre adresse de messagerie ne sera pas publiée. Les champs obligatoires sont indiqués avec *

63 − = 60